sensor_id;sensor_type;location;lat;lon;timestamp;pressure;altitude;pressure_sealevel;temperature;humidity
67373;BME280;54257;54.496;18.412;2023-06-10T00:00:57;100228.90;;;15.84;66.28
67373;BME280;54257;54.496;18.412;2023-06-10T00:03:46;100231.48;;;15.81;66.81
67373;BME280;54257;54.496;18.412;2023-06-10T00:06:39;100229.58;;;15.77;67.01
67373;BME280;54257;54.496;18.412;2023-06-10T00:09:15;100232.34;;;15.74;67.32
67373;BME280;54257;54.496;18.412;2023-06-10T00:11:42;100233.55;;;15.71;67.54
67373;BME280;54257;54.496;18.412;2023-06-10T00:14:10;100234.40;;;15.69;67.62
67373;BME280;54257;54.496;18.412;2023-06-10T00:16:37;100236.99;;;15.65;67.81
67373;BME280;54257;54.496;18.412;2023-06-10T00:19:05;100235.27;;;15.64;67.84
67373;BME280;54257;54.496;18.412;2023-06-10T00:21:34;100234.21;;;15.60;68.43
67373;BME280;54257;54.496;18.412;2023-06-10T00:24:07;100236.79;;;15.57;68.50
67373;BME280;54257;54.496;18.412;2023-06-10T00:26:39;100243.84;;;15.52;68.82
67373;BME280;54257;54.496;18.412;2023-06-10T00:29:07;100245.56;;;15.49;69.03
67373;BME280;54257;54.496;18.412;2023-06-10T00:31:35;100245.71;;;15.46;69.38
67373;BME280;54257;54.496;18.412;2023-06-10T00:34:02;100244.86;;;15.42;69.59
67373;BME280;54257;54.496;18.412;2023-06-10T00:36:29;100245.73;;;15.41;69.58
67373;BME280;54257;54.496;18.412;2023-06-10T00:38:57;100246.91;;;15.38;69.84
67373;BME280;54257;54.496;18.412;2023-06-10T00:41:24;100247.27;;;15.36;69.78
67373;BME280;54257;54.496;18.412;2023-06-10T00:43:53;100247.08;;;15.34;69.72
67373;BME280;54257;54.496;18.412;2023-06-10T00:46:21;100247.95;;;15.33;69.71
67373;BME280;54257;54.496;18.412;2023-06-10T00:48:59;100251.90;;;15.30;69.57
67373;BME280;54257;54.496;18.412;2023-06-10T00:51:46;100252.92;;;15.28;69.68
67373;BME280;54257;54.496;18.412;2023-06-10T00:54:15;100254.30;;;15.25;70.02
67373;BME280;54257;54.496;18.412;2023-06-10T00:56:43;100254.80;;;15.21;70.52
67373;BME280;54257;54.496;18.412;2023-06-10T00:59:10;100257.04;;;15.16;70.58
67373;BME280;54257;54.496;18.412;2023-06-10T01:01:37;100256.14;;;15.12;70.51
67373;BME280;54257;54.496;18.412;2023-06-10T01:04:06;100256.49;;;15.10;70.51
67373;BME280;54257;54.496;18.412;2023-06-10T01:09:30;100261.97;;;15.04;70.70
67373;BME280;54257;54.496;18.412;2023-06-10T01:12:20;100258.19;;;15.01;70.83
67373;BME280;54257;54.496;18.412;2023-06-10T01:14:50;100262.31;;;15.00;70.71
67373;BME280;54257;54.496;18.412;2023-06-10T01:17:18;100261.60;;;14.97;70.87
67373;BME280;54257;54.496;18.412;2023-06-10T01:19:56;100266.25;;;14.95;71.30
67373;BME280;54257;54.496;18.412;2023-06-10T01:22:25;100264.17;;;14.91;71.26
67373;BME280;54257;54.496;18.412;2023-06-10T01:24:55;100262.61;;;14.88;71.27
67373;BME280;54257;54.496;18.412;2023-06-10T01:27:30;100263.13;;;14.85;71.39
67373;BME280;54257;54.496;18.412;2023-06-10T01:30:06;100266.90;;;14.84;71.26
67373;BME280;54257;54.496;18.412;2023-06-10T01:32:42;100267.92;;;14.81;71.60
67373;BME280;54257;54.496;18.412;2023-06-10T01:35:10;100272.04;;;14.78;71.62
67373;BME280;54257;54.496;18.412;2023-06-10T01:37:39;100275.98;;;14.75;71.73
67373;BME280;54257;54.496;18.412;2023-06-10T01:40:13;100275.77;;;14.73;71.81
67373;BME280;54257;54.496;18.412;2023-06-10T01:42:40;100276.47;;;14.71;71.77
67373;BME280;54257;54.496;18.412;2023-06-10T01:45:07;100278.52;;;14.69;71.73
67373;BME280;54257;54.496;18.412;2023-06-10T01:47:34;100285.58;;;14.68;71.74
67373;BME280;54257;54.496;18.412;2023-06-10T01:50:04;100284.71;;;14.67;71.71
67373;BME280;54257;54.496;18.412;2023-06-10T01:52:31;100290.20;;;14.66;71.72
67373;BME280;54257;54.496;18.412;2023-06-10T01:54:58;100291.73;;;14.64;71.52
67373;BME280;54257;54.496;18.412;2023-06-10T01:57:25;100298.94;;;14.62;71.62
67373;BME280;54257;54.496;18.412;2023-06-10T01:59:52;100299.45;;;14.60;71.82
67373;BME280;54257;54.496;18.412;2023-06-10T02:02:19;100299.25;;;14.56;71.71
67373;BME280;54257;54.496;18.412;2023-06-10T02:04:46;100303.19;;;14.52;71.69
67373;BME280;54257;54.496;18.412;2023-06-10T02:07:18;100305.42;;;14.52;71.87
67373;BME280;54257;54.496;18.412;2023-06-10T02:09:45;100304.70;;;14.49;71.99
67373;BME280;54257;54.496;18.412;2023-06-10T02:12:12;100306.23;;;14.45;72.16
67373;BME280;54257;54.496;18.412;2023-06-10T02:14:50;100305.67;;;14.42;72.09
67373;BME280;54257;54.496;18.412;2023-06-10T02:17:17;100311.33;;;14.40;72.30
67373;BME280;54257;54.496;18.412;2023-06-10T02:19:44;100309.77;;;14.38;72.25
67373;BME280;54257;54.496;18.412;2023-06-10T02:22:21;100314.23;;;14.36;72.44
67373;BME280;54257;54.496;18.412;2023-06-10T02:24:50;100312.98;;;14.33;72.56
67373;BME280;54257;54.496;18.412;2023-06-10T02:27:18;100311.61;;;14.31;72.47
67373;BME280;54257;54.496;18.412;2023-06-10T02:29:45;100319.51;;;14.32;72.54
67373;BME280;54257;54.496;18.412;2023-06-10T02:32:11;100320.88;;;14.31;72.65
67373;BME280;54257;54.496;18.412;2023-06-10T02:34:38;100327.07;;;14.30;72.54
67373;BME280;54257;54.496;18.412;2023-06-10T02:37:08;100331.18;;;14.29;72.64
67373;BME280;54257;54.496;18.412;2023-06-10T02:39:35;100330.15;;;14.28;72.65
67373;BME280;54257;54.496;18.412;2023-06-10T02:42:02;100327.56;;;14.27;72.72
67373;BME280;54257;54.496;18.412;2023-06-10T02:44:29;100328.95;;;14.27;72.66
67373;BME280;54257;54.496;18.412;2023-06-10T02:46:59;100327.91;;;14.27;72.77
67373;BME280;54257;54.496;18.412;2023-06-10T02:49:26;100327.40;;;14.27;72.83
67373;BME280;54257;54.496;18.412;2023-06-10T02:51:56;100328.08;;;14.25;73.00
67373;BME280;54257;54.496;18.412;2023-06-10T02:54:23;100326.67;;;14.25;73.02
67373;BME280;54257;54.496;18.412;2023-06-10T02:56:52;100328.24;;;14.25;73.01
67373;BME280;54257;54.496;18.412;2023-06-10T02:59:19;100326.36;;;14.26;73.39
67373;BME280;54257;54.496;18.412;2023-06-10T03:01:46;100328.78;;;14.28;73.15
67373;BME280;54257;54.496;18.412;2023-06-10T03:04:13;100331.86;;;14.28;73.15
67373;BME280;54257;54.496;18.412;2023-06-10T03:06:43;100333.77;;;14.28;73.37
67373;BME280;54257;54.496;18.412;2023-06-10T03:09:12;100342.70;;;14.30;73.35
67373;BME280;54257;54.496;18.412;2023-06-10T03:11:40;100342.54;;;14.31;73.28
67373;BME280;54257;54.496;18.412;2023-06-10T03:14:07;100344.42;;;14.32;73.42
67373;BME280;54257;54.496;18.412;2023-06-10T03:16:34;100347.38;;;14.33;73.34
67373;BME280;54257;54.496;18.412;2023-06-10T03:19:01;100347.39;;;14.36;73.16
67373;BME280;54257;54.496;18.412;2023-06-10T03:21:28;100344.65;;;14.39;73.21
67373;BME280;54257;54.496;18.412;2023-06-10T03:23:55;100345.55;;;14.43;73.19
67373;BME280;54257;54.496;18.412;2023-06-10T03:26:26;100339.92;;;14.46;72.98
67373;BME280;54257;54.496;18.412;2023-06-10T03:28:54;100338.08;;;14.50;72.90
67373;BME280;54257;54.496;18.412;2023-06-10T03:31:20;100340.67;;;14.54;72.85
67373;BME280;54257;54.496;18.412;2023-06-10T03:33:47;100334.17;;;14.59;72.96
67373;BME280;54257;54.496;18.412;2023-06-10T03:36:14;100334.02;;;14.63;72.81
67373;BME280;54257;54.496;18.412;2023-06-10T03:38:43;100336.29;;;14.67;72.76
67373;BME280;54257;54.496;18.412;2023-06-10T03:41:10;100333.20;;;14.72;72.67
67373;BME280;54257;54.496;18.412;2023-06-10T03:43:37;100329.11;;;14.76;72.60
67373;BME280;54257;54.496;18.412;2023-06-10T03:46:07;100331.02;;;14.81;72.63
67373;BME280;54257;54.496;18.412;2023-06-10T03:48:34;100332.44;;;14.84;72.50
67373;BME280;54257;54.496;18.412;2023-06-10T03:51:01;100334.50;;;14.86;72.26
67373;BME280;54257;54.496;18.412;2023-06-10T03:53:27;100335.19;;;14.88;72.03
67373;BME280;54257;54.496;18.412;2023-06-10T03:55:54;100340.52;;;14.89;72.00
67373;BME280;54257;54.496;18.412;2023-06-10T03:58:22;100341.06;;;14.91;72.03
67373;BME280;54257;54.496;18.412;2023-06-10T04:00:50;100345.20;;;14.92;71.92
67373;BME280;54257;54.496;18.412;2023-06-10T04:03:20;100341.08;;;14.94;71.97
67373;BME280;54257;54.496;18.412;2023-06-10T04:05:48;100343.83;;;14.95;72.02
67373;BME280;54257;54.496;18.412;2023-06-10T04:08:16;100341.60;;;14.97;72.03
67373;BME280;54257;54.496;18.412;2023-06-10T04:10:43;100340.40;;;14.98;71.75
67373;BME280;54257;54.496;18.412;2023-06-10T04:13:10;100339.90;;;14.99;71.57
67373;BME280;54257;54.496;18.412;2023-06-10T04:15:37;100342.66;;;15.00;71.43
67373;BME280;54257;54.496;18.412;2023-06-10T04:18:04;100349.55;;;15.04;71.18
67373;BME280;54257;54.496;18.412;2023-06-10T04:20:33;100350.95;;;15.07;71.11
67373;BME280;54257;54.496;18.412;2023-06-10T04:22:59;100350.10;;;15.08;70.99
67373;BME280;54257;54.496;18.412;2023-06-10T04:25:27;100345.98;;;15.10;71.00
67373;BME280;54257;54.496;18.412;2023-06-10T04:27:57;100344.42;;;15.13;70.51
67373;BME280;54257;54.496;18.412;2023-06-10T04:30:24;100344.10;;;15.14;70.32
67373;BME280;54257;54.496;18.412;2023-06-10T04:32:51;100348.06;;;15.17;69.91
67373;BME280;54257;54.496;18.412;2023-06-10T04:35:18;100353.06;;;15.21;69.80
67373;BME280;54257;54.496;18.412;2023-06-10T04:37:45;100352.22;;;15.23;69.52
67373;BME280;54257;54.496;18.412;2023-06-10T04:40:12;100357.58;;;15.26;69.38
67373;BME280;54257;54.496;18.412;2023-06-10T04:42:40;100364.27;;;15.28;68.87
67373;BME280;54257;54.496;18.412;2023-06-10T04:45:07;100366.69;;;15.29;68.48
67373;BME280;54257;54.496;18.412;2023-06-10T04:47:34;100364.31;;;15.33;68.54
67373;BME280;54257;54.496;18.412;2023-06-10T04:50:02;100365.69;;;15.36;68.48
67373;BME280;54257;54.496;18.412;2023-06-10T04:52:33;100367.09;;;15.39;68.29
67373;BME280;54257;54.496;18.412;2023-06-10T04:55:00;100374.66;;;15.42;67.93
67373;BME280;54257;54.496;18.412;2023-06-10T04:57:27;100372.42;;;15.46;67.38
67373;BME280;54257;54.496;18.412;2023-06-10T04:59:54;100376.92;;;15.47;66.52
67373;BME280;54257;54.496;18.412;2023-06-10T05:02:21;100380.55;;;15.49;66.52
67373;BME280;54257;54.496;18.412;2023-06-10T05:04:48;100386.59;;;15.54;66.54
67373;BME280;54257;54.496;18.412;2023-06-10T05:07:15;100383.35;;;15.60;66.35
67373;BME280;54257;54.496;18.412;2023-06-10T05:09:42;100390.62;;;15.66;66.07
67373;BME280;54257;54.496;18.412;2023-06-10T05:12:09;100395.63;;;15.75;65.60
67373;BME280;54257;54.496;18.412;2023-06-10T05:14:36;100396.51;;;15.84;64.97
67373;BME280;54257;54.496;18.412;2023-06-10T05:17:03;100400.33;;;15.93;65.15
67373;BME280;54257;54.496;18.412;2023-06-10T05:19:32;100400.36;;;16.04;64.80
67373;BME280;54257;54.496;18.412;2023-06-10T05:21:59;100401.22;;;16.13;64.22
67373;BME280;54257;54.496;18.412;2023-06-10T05:24:26;100407.09;;;16.23;64.20
67373;BME280;54257;54.496;18.412;2023-06-10T05:26:55;100405.88;;;16.34;63.38
67373;BME280;54257;54.496;18.412;2023-06-10T05:29:22;100409.50;;;16.43;61.78
67373;BME280;54257;54.496;18.412;2023-06-10T05:31:49;100408.13;;;16.51;60.68
67373;BME280;54257;54.496;18.412;2023-06-10T05:34:16;100413.81;;;16.62;60.61
67373;BME280;54257;54.496;18.412;2023-06-10T05:36:43;100414.69;;;16.80;61.54
67373;BME280;54257;54.496;18.412;2023-06-10T05:39:10;100410.85;;;17.01;60.98
67373;BME280;54257;54.496;18.412;2023-06-10T05:41:37;100412.36;;;17.17;60.05
67373;BME280;54257;54.496;18.412;2023-06-10T05:44:08;100415.95;;;17.29;59.42
67373;BME280;54257;54.496;18.412;2023-06-10T05:46:34;100420.37;;;17.46;58.94
67373;BME280;54257;54.496;18.412;2023-06-10T05:49:02;100422.02;;;17.67;58.00
67373;BME280;54257;54.496;18.412;2023-06-10T05:51:43;100426.45;;;17.83;57.72
67373;BME280;54257;54.496;18.412;2023-06-10T05:54:10;100423.96;;;17.94;57.33
67373;BME280;54257;54.496;18.412;2023-06-10T05:56:37;100420.02;;;18.15;57.75
67373;BME280;54257;54.496;18.412;2023-06-10T05:59:04;100432.20;;;18.30;56.77
67373;BME280;54257;54.496;18.412;2023-06-10T06:01:31;100430.71;;;18.41;55.89
67373;BME280;54257;54.496;18.412;2023-06-10T06:03:59;100432.68;;;18.57;55.22
67373;BME280;54257;54.496;18.412;2023-06-10T06:06:57;100433.80;;;18.70;54.16
67373;BME280;54257;54.496;18.412;2023-06-10T06:09:29;100434.10;;;18.75;52.80
67373;BME280;54257;54.496;18.412;2023-06-10T06:12:32;100433.27;;;18.90;53.50
67373;BME280;54257;54.496;18.412;2023-06-10T06:15:36;100432.05;;;19.08;51.80
67373;BME280;54257;54.496;18.412;2023-06-10T06:18:20;100428.71;;;19.12;51.58
67373;BME280;54257;54.496;18.412;2023-06-10T06:23:52;100435.23;;;19.32;50.35
67373;BME280;54257;54.496;18.412;2023-06-10T06:29:59;100435.44;;;19.62;49.39
67373;BME280;54257;54.496;18.412;2023-06-10T06:33:37;100441.93;;;19.81;49.20
67373;BME280;54257;54.496;18.412;2023-06-10T06:36:05;100449.60;;;19.91;48.18
67373;BME280;54257;54.496;18.412;2023-06-10T06:41:34;100453.29;;;20.11;47.12
67373;BME280;54257;54.496;18.412;2023-06-10T06:44:39;100458.45;;;20.15;46.99
67373;BME280;54257;54.496;18.412;2023-06-10T06:47:48;100460.65;;;20.18;46.46
67373;BME280;54257;54.496;18.412;2023-06-10T06:50:18;100462.16;;;20.22;46.70
67373;BME280;54257;54.496;18.412;2023-06-10T06:53:34;100470.64;;;20.35;45.82
67373;BME280;54257;54.496;18.412;2023-06-10T06:56:41;100474.78;;;20.36;46.26
67373;BME280;54257;54.496;18.412;2023-06-10T06:59:08;100483.31;;;20.49;45.99
67373;BME280;54257;54.496;18.412;2023-06-10T07:02:08;100484.48;;;20.62;44.83
67373;BME280;54257;54.496;18.412;2023-06-10T07:04:38;100483.95;;;20.74;44.97
67373;BME280;54257;54.496;18.412;2023-06-10T07:07:16;100482.58;;;20.83;43.69
67373;BME280;54257;54.496;18.412;2023-06-10T07:09:52;100488.86;;;21.02;44.11
67373;BME280;54257;54.496;18.412;2023-06-10T07:12:19;100491.27;;;21.12;42.68
67373;BME280;54257;54.496;18.412;2023-06-10T07:14:50;100491.20;;;21.07;42.23
67373;BME280;54257;54.496;18.412;2023-06-10T07:17:17;100494.83;;;21.17;43.16
67373;BME280;54257;54.496;18.412;2023-06-10T07:19:47;100495.54;;;21.27;42.53
67373;BME280;54257;54.496;18.412;2023-06-10T07:22:24;100496.69;;;21.31;42.64
67373;BME280;54257;54.496;18.412;2023-06-10T07:24:51;100494.77;;;21.50;41.75
67373;BME280;54257;54.496;18.412;2023-06-10T07:31:25;100506.73;;;21.77;41.50
67373;BME280;54257;54.496;18.412;2023-06-10T07:34:19;100503.48;;;21.82;41.01
67373;BME280;54257;54.496;18.412;2023-06-10T07:36:46;100511.65;;;21.83;40.19
67373;BME280;54257;54.496;18.412;2023-06-10T07:39:23;100506.84;;;21.89;39.89
67373;BME280;54257;54.496;18.412;2023-06-10T07:42:13;100506.04;;;21.93;39.86
67373;BME280;54257;54.496;18.412;2023-06-10T07:44:43;100504.20;;;22.07;39.86
67373;BME280;54257;54.496;18.412;2023-06-10T07:47:57;100498.45;;;22.16;39.41
67373;BME280;54257;54.496;18.412;2023-06-10T07:50:46;100505.08;;;22.23;38.69
67373;BME280;54257;54.496;18.412;2023-06-10T07:53:27;100508.45;;;22.28;38.47
67373;BME280;54257;54.496;18.412;2023-06-10T07:56:09;100507.15;;;22.39;39.27
67373;BME280;54257;54.496;18.412;2023-06-10T07:58:53;100507.98;;;22.55;39.20
67373;BME280;54257;54.496;18.412;2023-06-10T08:01:20;100511.88;;;22.60;38.57
67373;BME280;54257;54.496;18.412;2023-06-10T08:04:00;100512.72;;;22.68;38.94
67373;BME280;54257;54.496;18.412;2023-06-10T08:07:26;100510.31;;;22.74;38.29
67373;BME280;54257;54.496;18.412;2023-06-10T08:10:20;100506.39;;;22.78;37.70
67373;BME280;54257;54.496;18.412;2023-06-10T08:13:33;100501.30;;;22.72;37.39
67373;BME280;54257;54.496;18.412;2023-06-10T08:16:21;100501.62;;;22.73;37.21
67373;BME280;54257;54.496;18.412;2023-06-10T08:19:15;100502.11;;;22.75;37.37
67373;BME280;54257;54.496;18.412;2023-06-10T08:22:05;100504.80;;;22.79;37.02
67373;BME280;54257;54.496;18.412;2023-06-10T08:24:59;100517.88;;;22.78;36.47
67373;BME280;54257;54.496;18.412;2023-06-10T08:28:40;100520.63;;;22.65;36.66
67373;BME280;54257;54.496;18.412;2023-06-10T08:31:14;100518.61;;;22.70;36.81
67373;BME280;54257;54.496;18.412;2023-06-10T08:33:44;100519.21;;;22.80;37.15
67373;BME280;54257;54.496;18.412;2023-06-10T08:36:27;100515.27;;;22.93;37.42
67373;BME280;54257;54.496;18.412;2023-06-10T08:39:23;100513.66;;;23.15;37.94
67373;BME280;54257;54.496;18.412;2023-06-10T08:42:17;100513.13;;;23.41;36.95
67373;BME280;54257;54.496;18.412;2023-06-10T08:44:54;100508.81;;;23.52;36.40
67373;BME280;54257;54.496;18.412;2023-06-10T08:47:29;100506.77;;;23.57;36.17
67373;BME280;54257;54.496;18.412;2023-06-10T08:50:01;100508.34;;;23.70;36.43
67373;BME280;54257;54.496;18.412;2023-06-10T08:52:43;100514.25;;;23.83;36.73
67373;BME280;54257;54.496;18.412;2023-06-10T08:55:40;100515.11;;;23.89;36.49
67373;BME280;54257;54.496;18.412;2023-06-10T09:02:06;100516.66;;;23.90;36.06
67373;BME280;54257;54.496;18.412;2023-06-10T09:05:18;100515.86;;;23.99;36.22
67373;BME280;54257;54.496;18.412;2023-06-10T09:07:57;100514.71;;;24.02;35.79
67373;BME280;54257;54.496;18.412;2023-06-10T09:10:24;100512.16;;;24.12;35.82
67373;BME280;54257;54.496;18.412;2023-06-10T09:13:32;100516.98;;;24.26;35.62
67373;BME280;54257;54.496;18.412;2023-06-10T09:16:43;100513.25;;;24.34;36.16
67373;BME280;54257;54.496;18.412;2023-06-10T09:19:33;100515.30;;;24.41;35.45
67373;BME280;54257;54.496;18.412;2023-06-10T09:22:24;100512.67;;;24.53;35.98
67373;BME280;54257;54.496;18.412;2023-06-10T09:25:15;100514.24;;;24.58;36.10
67373;BME280;54257;54.496;18.412;2023-06-10T09:27:55;100511.41;;;24.48;35.78
67373;BME280;54257;54.496;18.412;2023-06-10T09:31:07;100514.08;;;24.41;35.32
67373;BME280;54257;54.496;18.412;2023-06-10T09:33:51;100514.92;;;24.48;36.30
67373;BME280;54257;54.496;18.412;2023-06-10T09:37:05;100522.71;;;24.61;36.67
67373;BME280;54257;54.496;18.412;2023-06-10T09:39:39;100521.44;;;24.73;36.68
67373;BME280;54257;54.496;18.412;2023-06-10T09:45:58;100523.30;;;24.91;36.59
67373;BME280;54257;54.496;18.412;2023-06-10T09:48:29;100532.56;;;25.02;35.81
67373;BME280;54257;54.496;18.412;2023-06-10T09:51:08;100529.31;;;24.89;35.73
67373;BME280;54257;54.496;18.412;2023-06-10T09:53:37;100527.19;;;24.74;36.35
67373;BME280;54257;54.496;18.412;2023-06-10T09:56:07;100529.85;;;24.67;36.60
67373;BME280;54257;54.496;18.412;2023-06-10T09:58:54;100532.96;;;24.73;37.15
67373;BME280;54257;54.496;18.412;2023-06-10T10:01:21;100531.02;;;24.85;37.32
67373;BME280;54257;54.496;18.412;2023-06-10T10:03:50;100532.42;;;24.95;37.31
67373;BME280;54257;54.496;18.412;2023-06-10T10:06:19;100532.31;;;24.98;36.01
67373;BME280;54257;54.496;18.412;2023-06-10T10:08:47;100531.98;;;24.82;35.93
67373;BME280;54257;54.496;18.412;2023-06-10T10:11:28;100529.05;;;24.75;36.49
67373;BME280;54257;54.496;18.412;2023-06-10T10:14:46;100532.98;;;24.94;36.68
67373;BME280;54257;54.496;18.412;2023-06-10T10:17:19;100532.30;;;24.88;36.30
67373;BME280;54257;54.496;18.412;2023-06-10T10:19:57;100530.13;;;24.91;36.08
67373;BME280;54257;54.496;18.412;2023-06-10T10:22:47;100528.00;;;24.86;36.37
67373;BME280;54257;54.496;18.412;2023-06-10T10:25:25;100532.99;;;24.83;36.54
67373;BME280;54257;54.496;18.412;2023-06-10T10:28:13;100529.41;;;24.86;37.12
67373;BME280;54257;54.496;18.412;2023-06-10T10:30:45;100529.70;;;24.88;36.81
67373;BME280;54257;54.496;18.412;2023-06-10T10:33:17;100527.23;;;24.72;36.65
67373;BME280;54257;54.496;18.412;2023-06-10T10:35:46;100531.49;;;24.65;36.89
67373;BME280;54257;54.496;18.412;2023-06-10T10:38:13;100526.35;;;24.51;37.38
67373;BME280;54257;54.496;18.412;2023-06-10T10:40:41;100527.30;;;24.65;37.93
67373;BME280;54257;54.496;18.412;2023-06-10T10:43:09;100530.73;;;24.72;37.82
67373;BME280;54257;54.496;18.412;2023-06-10T10:45:37;100530.92;;;24.77;37.54
67373;BME280;54257;54.496;18.412;2023-06-10T10:48:09;100530.99;;;24.86;37.62
67373;BME280;54257;54.496;18.412;2023-06-10T10:50:40;100529.27;;;25.01;37.31
67373;BME280;54257;54.496;18.412;2023-06-10T10:53:07;100533.50;;;25.21;36.93
67373;BME280;54257;54.496;18.412;2023-06-10T10:55:35;100530.97;;;25.38;36.22
67373;BME280;54257;54.496;18.412;2023-06-10T10:58:06;100532.93;;;25.52;36.05
67373;BME280;54257;54.496;18.412;2023-06-10T11:00:42;100532.30;;;25.40;35.47
67373;BME280;54257;54.496;18.412;2023-06-10T11:03:29;100536.73;;;25.28;34.68
67373;BME280;54257;54.496;18.412;2023-06-10T11:09:27;100538.83;;;25.19;34.83
67373;BME280;54257;54.496;18.412;2023-06-10T11:12:10;100539.44;;;25.21;34.74
67373;BME280;54257;54.496;18.412;2023-06-10T11:15:29;100539.58;;;25.22;35.26
67373;BME280;54257;54.496;18.412;2023-06-10T11:18:06;100537.59;;;25.34;34.87
67373;BME280;54257;54.496;18.412;2023-06-10T11:20:57;100537.89;;;25.30;34.49
67373;BME280;54257;54.496;18.412;2023-06-10T11:23:49;100544.09;;;25.33;35.67
67373;BME280;54257;54.496;18.412;2023-06-10T11:30:56;100532.62;;;25.60;35.32
67373;BME280;54257;54.496;18.412;2023-06-10T11:34:15;100541.39;;;25.76;34.90
67373;BME280;54257;54.496;18.412;2023-06-10T11:37:09;100538.98;;;25.68;34.89
67373;BME280;54257;54.496;18.412;2023-06-10T11:40:20;100540.59;;;25.68;34.65
67373;BME280;54257;54.496;18.412;2023-06-10T11:43:15;100543.43;;;25.66;34.89
67373;BME280;54257;54.496;18.412;2023-06-10T11:46:02;100547.06;;;25.63;35.17
67373;BME280;54257;54.496;18.412;2023-06-10T11:49:04;100545.08;;;25.60;35.05
67373;BME280;54257;54.496;18.412;2023-06-10T11:51:47;100548.28;;;25.49;34.81
67373;BME280;54257;54.496;18.412;2023-06-10T12:00:57;100543.31;;;25.25;34.94
67373;BME280;54257;54.496;18.412;2023-06-10T12:03:35;100546.92;;;25.07;34.99
67373;BME280;54257;54.496;18.412;2023-06-10T12:06:07;100544.88;;;24.94;35.63
67373;BME280;54257;54.496;18.412;2023-06-10T12:08:41;100544.94;;;24.97;35.95
67373;BME280;54257;54.496;18.412;2023-06-10T12:11:33;100540.32;;;25.00;35.45
67373;BME280;54257;54.496;18.412;2023-06-10T12:17:02;100546.10;;;24.83;36.21
67373;BME280;54257;54.496;18.412;2023-06-10T12:20:31;100549.45;;;24.98;36.49
67373;BME280;54257;54.496;18.412;2023-06-10T12:26:55;100548.86;;;25.17;36.34
67373;BME280;54257;54.496;18.412;2023-06-10T12:29:36;100551.27;;;25.18;36.11
67373;BME280;54257;54.496;18.412;2023-06-10T12:32:40;100549.91;;;24.95;36.10
67373;BME280;54257;54.496;18.412;2023-06-10T12:35:52;100544.11;;;24.69;36.30
67373;BME280;54257;54.496;18.412;2023-06-10T12:38:30;100553.02;;;24.58;36.63
67373;BME280;54257;54.496;18.412;2023-06-10T12:41:01;100550.31;;;24.56;37.08
67373;BME280;54257;54.496;18.412;2023-06-10T12:43:32;100546.73;;;24.53;36.96
67373;BME280;54257;54.496;18.412;2023-06-10T12:46:11;100547.39;;;24.54;36.68
67373;BME280;54257;54.496;18.412;2023-06-10T12:48:53;100547.68;;;24.45;36.85
67373;BME280;54257;54.496;18.412;2023-06-10T12:51:30;100550.94;;;24.42;36.43
67373;BME280;54257;54.496;18.412;2023-06-10T12:54:12;100547.95;;;24.37;37.07
67373;BME280;54257;54.496;18.412;2023-06-10T12:57:13;100549.73;;;24.47;36.90
67373;BME280;54257;54.496;18.412;2023-06-10T12:59:40;100547.73;;;24.38;36.15
67373;BME280;54257;54.496;18.412;2023-06-10T13:02:30;100547.92;;;24.24;36.39
67373;BME280;54257;54.496;18.412;2023-06-10T13:05:29;100537.74;;;24.09;36.54
67373;BME280;54257;54.496;18.412;2023-06-10T13:08:18;100543.81;;;24.05;36.66
67373;BME280;54257;54.496;18.412;2023-06-10T13:11:25;100544.10;;;23.83;36.39
67373;BME280;54257;54.496;18.412;2023-06-10T13:14:05;100544.70;;;23.67;37.04
67373;BME280;54257;54.496;18.412;2023-06-10T13:16:55;100547.23;;;23.57;37.18
67373;BME280;54257;54.496;18.412;2023-06-10T13:19:22;100547.17;;;23.40;37.22
67373;BME280;54257;54.496;18.412;2023-06-10T13:22:03;100545.38;;;23.35;36.59
67373;BME280;54257;54.496;18.412;2023-06-10T13:28:37;100544.64;;;23.24;36.70
67373;BME280;54257;54.496;18.412;2023-06-10T13:32:06;100538.66;;;23.06;36.52
67373;BME280;54257;54.496;18.412;2023-06-10T13:34:55;100542.69;;;23.05;37.08
67373;BME280;54257;54.496;18.412;2023-06-10T13:37:53;100540.17;;;22.94;36.60
67373;BME280;54257;54.496;18.412;2023-06-10T13:40:22;100539.02;;;22.76;37.01
67373;BME280;54257;54.496;18.412;2023-06-10T13:42:50;100540.72;;;22.70;36.88
67373;BME280;54257;54.496;18.412;2023-06-10T13:45:37;100542.01;;;22.60;37.60
67373;BME280;54257;54.496;18.412;2023-06-10T13:48:09;100541.08;;;22.55;37.90
67373;BME280;54257;54.496;18.412;2023-06-10T13:50:56;100538.39;;;22.58;37.64
67373;BME280;54257;54.496;18.412;2023-06-10T13:53:46;100542.39;;;22.66;37.96
67373;BME280;54257;54.496;18.412;2023-06-10T13:57:13;100539.64;;;22.72;37.39
67373;BME280;54257;54.496;18.412;2023-06-10T14:00:31;100540.55;;;22.56;36.95
67373;BME280;54257;54.496;18.412;2023-06-10T14:03:17;100543.05;;;22.46;37.54
67373;BME280;54257;54.496;18.412;2023-06-10T14:06:04;100537.61;;;22.40;38.43
67373;BME280;54257;54.496;18.412;2023-06-10T14:09:09;100542.11;;;22.48;38.29
67373;BME280;54257;54.496;18.412;2023-06-10T14:11:47;100531.71;;;22.46;37.72
67373;BME280;54257;54.496;18.412;2023-06-10T14:14:14;100533.97;;;22.46;37.98
67373;BME280;54257;54.496;18.412;2023-06-10T14:16:53;100531.00;;;22.46;37.46
67373;BME280;54257;54.496;18.412;2023-06-10T14:19:41;100528.40;;;22.39;37.09
67373;BME280;54257;54.496;18.412;2023-06-10T14:22:22;100528.21;;;22.24;36.84